This is the latest recevied weather packets stored in our database for station/object DB0ASF-4. If no packets are shown the sender has not sent any weather packets the latest 1 day(s).
| Time | Temp. | Humidity | Pressure | Rain* | Wind** | Luminosity | Snow |
|---|---|---|---|---|---|---|---|
| 1778075958 | 23.33° C | 48% | 1010.2 hPa | 0 mm | - | - | - |
| 1778070558 | 21.67° C | 56% | 1010.5 hPa | 0 mm | - | - | - |
| 1778069358 | 20.56° C | 56% | 1010.7 hPa | 0 mm | - | - | - |
| 1778068158 | 21.67° C | 56% | 1010.5 hPa | 0 mm | - | - | - |
| 1778066958 | 21.11° C | 59% | 1010.5 hPa | 0 mm | - | - | - |
| 1778066358 | 21.11° C | 60% | 1010.5 hPa | 0 mm | - | - | - |
| 1778065158 | 21.11° C | 60% | 1010.5 hPa | 0 mm | - | - | - |
| 1778064558 | 21.11° C | 60% | 1010.5 hPa | 0 mm | - | - | - |
| 1778060358 | 18.33° C | 70% | 1010.7 hPa | 0 mm | - | - | - |
| 1778059158 | 17.22° C | 75% | 1010.9 hPa | 0 mm | - | - | - |
| 1778058558 | 16.67° C | 75% | 1011 hPa | 0 mm | - | - | - |
| 1778057358 | 17.78° C | 73% | 1010.7 hPa | 0 mm | - | - | - |
| 1778056758 | 17.22° C | 75% | 1010.7 hPa | 0 mm | - | - | - |
| 1778056158 | 17.22° C | 76% | 1010.5 hPa | 0 mm | - | - | - |
| 1778055558 | 17.22° C | 78% | 1010.5 hPa | 0 mm | - | - | - |
| 1778054958 | 16.67° C | 79% | 1010.5 hPa | 0 mm | - | - | - |
| 1778054358 | 16.67° C | 82% | 1010.5 hPa | 0 mm | - | - | - |
| 1778053758 | 16.11° C | 83% | 1010.5 hPa | 0 mm | - | - | - |
| 1778053158 | 16.11° C | 83% | 1010.7 hPa | 0 mm | - | - | - |
| 1778052558 | 16.11° C | 85% | 1010.7 hPa | 0 mm | - | - | - |
| 1778051958 | 15.56° C | 87% | 1010.7 hPa | 0 mm | - | - | - |
| 1778051358 | 15° C | 88% | 1010.5 hPa | 0 mm | - | - | - |
| 1778050758 | 14.44° C | 89% | 1010.5 hPa | 0 mm | - | - | - |
| 1778050158 | 13.89° C | 90% | 1010.7 hPa | 0 mm | - | - | - |
| 1778049558 | 13.89° C | 90% | 1010.7 hPa | 0 mm | - | - | - |
* Rain latest hour (hover to see other rain measurements)
** Current wind speed in m/s (hover to see current wind gust speed)